This is the latest recevied weather packets stored in our database for station/object 9W2CEW-1. If no packets are shown the sender has not sent any weather packets the latest 10 day(s).
| Time | Temp. | Humidity | Pressure | Rain* | Wind** | Luminosity | Snow |
|---|---|---|---|---|---|---|---|
| 1787812710 | 36.11° C | 42% | 1003.7 hPa | - | - | - | - |
| 1787811809 | 36.11° C | 44% | 1004.1 hPa | - | - | - | - |
| 1787810909 | 37.78° C | 41% | 1004.3 hPa | - | - | - | - |
| 1787810009 | 37.22° C | 42% | 1004.6 hPa | - | - | - | - |
| 1787809109 | 36.67° C | 44% | 1004.6 hPa | - | - | - | - |
| 1787808209 | 36.11° C | 45% | 1005.2 hPa | - | - | - | - |
| 1787807319 | 36.67° C | 43% | 1005.5 hPa | - | - | - | - |
| 1787806409 | 36.11° C | 45% | 1006.1 hPa | - | - | - | - |
| 1787805557 | 35° C | 46% | 1006 hPa | - | - | - | - |
| 1787805509 | 35° C | 46% | 1006 hPa | - | - | - | - |
| 1787804609 | 36.67° C | 42% | 1006.3 hPa | - | - | - | - |
| 1787803708 | 37.22° C | 42% | 1006.4 hPa | - | - | - | - |
| 1787802809 | 37.78° C | 43% | 1007 hPa | - | - | - | - |
| 1787801908 | 36.11° C | 47% | 1007.2 hPa | - | - | - | - |
| 1787801008 | 36.11° C | 47% | 1007.3 hPa | - | - | - | - |
| 1787800108 | 35.56° C | 47% | 1007.3 hPa | - | - | - | - |
| 1787799208 | 37.22° C | 45% | 1007.4 hPa | - | - | - | - |
| 1787798308 | 35.56° C | 49% | 1007.5 hPa | - | - | - | - |
| 1787797408 | 37.22° C | 46% | 1007.6 hPa | - | - | - | - |
| 1787796510 | 36.11° C | 48% | 1007.5 hPa | - | - | - | - |
| 1787796462 | 36.67° C | 45% | 1006.7 hPa | - | - | - | - |
| 1787795909 | 35° C | 49% | 1006.2 hPa | - | - | - | - |
| 1787795609 | 36.67° C | 46% | 1007.5 hPa | - | - | - | - |
| 1787794710 | 40.56° C | 38% | 1007.5 hPa | - | - | - | - |
| 1787794344 | 35° C | 49% | 1005.8 hPa | - | - | - | - |
* Rain since midnight (hover to see other rain measurements)
** Current wind speed in m/s (hover to see current wind gust speed)